Mehtap Bayraktar — TCPB — position and weather

sailwx.info

Track history (hours):
 
Tides and Currents Weather Stations Pressure Air Temp Water Temp Dewpoint Dewpoint Depression Visibility Wind Speed Wind Dir Waves Ship Positions

Mehtap Bayraktar

Last reported at 2016-Apr-24 16:19 UTC. Time now 2016-May-03 22:00 UTC.
Position N 36°50' E 035°54'.
Warning: this ship's position is 9 days out of date.

; draft 7.3 m.

Type: Cargo ship. MMSI: 271000578.

Date/timePositionNaut miles runAvg speedWind from/ knotsBaromVisibWave heightAir tempDewpointWater temp
2016-Apr-24 16:19N 36°50' E 035°54'0 0.0
2016-Apr-24 14:07N 36°50' E 035°54'0 0.0
2016-Apr-24 12:25N 36°50' E 035°54'0 0.0
2016-Apr-24 11:31N 36°50' E 035°54'0 0.0
2016-Apr-24 07:28N 36°50' E 035°54'0 0.0
2016-Apr-24 04:31N 36°50' E 035°54'0 0.0
2016-Apr-24 03:07N 36°50' E 035°54'0 0.0
2016-Apr-24 01:16N 36°50' E 035°54'0 0.0
2016-Apr-24 00:31N 36°50' E 035°54'0 0.0
2016-Apr-23 22:04N 36°50' E 035°54'0 0.0
2016-Apr-23 20:31N 36°50' E 035°54'0 0.0
2016-Apr-23 18:25N 36°50' E 035°54'  
2016-Apr-20 19:14N 36°53' E 027°22'180 9.9
2016-Apr-20 01:04N 39°36' E 025°45'7 9.5
2016-Apr-20 00:21N 39°43' E 025°47'8 9.5
2016-Apr-19 23:32N 39°51' E 025°49'10 9.3
2016-Apr-19 22:30N 39°59' E 025°55'1011.1
2016-Apr-19 21:33N 40°02' E 026°08'7911.0
2016-Apr-19 14:22N 40°43' E 027°36'910.9
2016-Apr-19 13:33N 40°41' E 027°48'1210.5
2016-Apr-19 12:24N 40°40' E 028°04'3010.6
2016-Apr-19 09:31N 40°48' E 028°42'1311.2
2016-Apr-19 08:23N 40°56' E 028°55'292 8.6
2016-Apr-17 22:33N 45°36' E 030°49'1010.3
2016-Apr-17 21:33N 45°46' E 030°53'10 9.7
2016-Apr-17 20:33N 45°55' E 030°57'10 9.7
2016-Apr-17 19:33N 46°05' E 031°01'9 8.7
2016-Apr-17 18:33N 46°13' E 030°57'9 9.3
2016-Apr-17 17:33N 46°22' E 030°55'1010.0
2016-Apr-17 16:33N 46°32' E 030°56'3 0.1
2016-Apr-16 14:33N 46°33' E 030°60'9 7.9
2016-Apr-16 13:28N 46°25' E 030°57'  
Track history (hours):
 
Tides and Currents Weather Stations Pressure Air Temp Water Temp Dewpoint Dewpoint Depression Visibility Wind Speed Wind Dir Waves Ship Positions

Mehtap Bayraktar

Last reported at 2016-Apr-24 16:19 UTC. Time now 2016-May-03 22:00 UTC.
Position N 36°50' E 035°54'.
Warning: this ship's position is 9 days out of date.

; draft 7.3 m.

Type: Cargo ship. MMSI: 271000578.

Date/timePositionNaut miles runAvg speedWind from/ knotsBaromVisibWave heightAir tempDewpointWater temp
2016-Apr-24 16:19N 36°50' E 035°54'0 0.0
2016-Apr-24 14:07N 36°50' E 035°54'0 0.0
2016-Apr-24 12:25N 36°50' E 035°54'0 0.0
2016-Apr-24 11:31N 36°50' E 035°54'0 0.0
2016-Apr-24 07:28N 36°50' E 035°54'0 0.0
2016-Apr-24 04:31N 36°50' E 035°54'0 0.0
2016-Apr-24 03:07N 36°50' E 035°54'0 0.0
2016-Apr-24 01:16N 36°50' E 035°54'0 0.0
2016-Apr-24 00:31N 36°50' E 035°54'0 0.0
2016-Apr-23 22:04N 36°50' E 035°54'0 0.0
2016-Apr-23 20:31N 36°50' E 035°54'0 0.0
2016-Apr-23 18:25N 36°50' E 035°54'  
2016-Apr-20 19:14N 36°53' E 027°22'180 9.9
2016-Apr-20 01:04N 39°36' E 025°45'7 9.5
2016-Apr-20 00:21N 39°43' E 025°47'8 9.5
2016-Apr-19 23:32N 39°51' E 025°49'10 9.3
2016-Apr-19 22:30N 39°59' E 025°55'1011.1
2016-Apr-19 21:33N 40°02' E 026°08'7911.0
2016-Apr-19 14:22N 40°43' E 027°36'910.9
2016-Apr-19 13:33N 40°41' E 027°48'1210.5
2016-Apr-19 12:24N 40°40' E 028°04'3010.6
2016-Apr-19 09:31N 40°48' E 028°42'1311.2
2016-Apr-19 08:23N 40°56' E 028°55'292 8.6
2016-Apr-17 22:33N 45°36' E 030°49'1010.3
2016-Apr-17 21:33N 45°46' E 030°53'10 9.7
2016-Apr-17 20:33N 45°55' E 030°57'10 9.7
2016-Apr-17 19:33N 46°05' E 031°01'9 8.7
2016-Apr-17 18:33N 46°13' E 030°57'9 9.3
2016-Apr-17 17:33N 46°22' E 030°55'1010.0
2016-Apr-17 16:33N 46°32' E 030°56'3 0.1
2016-Apr-16 14:33N 46°33' E 030°60'9 7.9
2016-Apr-16 13:28N 46°25' E 030°57'  

Dump ship's entire track history